Time,TemperatureF,DewpointF,PressureIn,WindDirection,WindDirectionDegrees,WindSpeedMPH,WindSpeedGustMPH,Humidity,HourlyPrecipIn,Conditions,Clouds,dailyrainin,SoftwareType,DateUTC
2013-01-09 00:06:00,38.6,23.7,30.11,North,-999,-999.0,-999.0,54,-99.99,,,-99.99,,2013-01-09 07:06:00,
2013-01-09 00:12:00,36.8,23.5,30.11,North,-999,-999.0,-999.0,58,-99.99,,,-99.99,,2013-01-09 07:12:00,
2013-01-09 00:18:00,36.7,23.6,30.12,North,-999,-999.0,-999.0,58,-99.99,,,-99.99,,2013-01-09 07:18:00,
2013-01-09 00:24:00,36.5,23.7,30.12,North,-999,-999.0,-999.0,59,-99.99,,,-99.99,,2013-01-09 07:24:00,
2013-01-09 00:30:00,36.1,23.7,30.12,North,-999,-999.0,-999.0,60,-99.99,,,-99.99,,2013-01-09 07:30:00,
2013-01-09 00:36:00,36.5,23.8,30.11,North,-999,-999.0,-999.0,59,-99.99,,,-99.99,,2013-01-09 07:36:00,
2013-01-09 00:42:00,38.2,23.7,30.11,North,-999,-999.0,-999.0,55,-99.99,,,-99.99,,2013-01-09 07:42:00,
2013-01-09 00:48:00,36.9,23.6,30.10,North,-999,-999.0,-999.0,58,-99.99,,,-99.99,,2013-01-09 07:48:00,
2013-01-09 00:54:00,38.3,24.0,30.11,North,-999,-999.0,-999.0,55,-99.99,,,-99.99,,2013-01-09 07:54:00,
2013-01-09 01:00:00,39.2,24.0,30.09,North,-999,-999.0,-999.0,54,-99.99,,,-99.99,,2013-01-09 08:00:00,
2013-01-09 01:06:00,39.8,23.8,30.09,North,-999,-999.0,-999.0,52,-99.99,,,-99.99,,2013-01-09 08:06:00,
2013-01-09 01:12:00,39.8,23.9,30.13,North,-999,-999.0,-999.0,52,-99.99,,,-99.99,,2013-01-09 08:12:00,
2013-01-09 01:18:00,39.0,23.8,30.12,North,-999,-999.0,-999.0,54,-99.99,,,-99.99,,2013-01-09 08:18:00,
2013-01-09 01:24:00,36.8,23.5,30.14,North,-999,-999.0,-999.0,58,-99.99,,,-99.99,,2013-01-09 08:24:00,
2013-01-09 01:30:00,36.8,23.8,30.13,North,-999,-999.0,-999.0,58,-99.99,,,-99.99,,2013-01-09 08:30:00,
2013-01-09 01:36:00,37.1,24.1,30.13,North,-999,-999.0,-999.0,59,-99.99,,,-99.99,,2013-01-09 08:36:00,
2013-01-09 01:42:00,38.7,24.2,30.12,North,-999,-999.0,-999.0,55,-99.99,,,-99.99,,2013-01-09 08:42:00,
2013-01-09 01:48:00,38.9,24.2,30.11,North,-999,-999.0,-999.0,55,-99.99,,,-99.99,,2013-01-09 08:48:00,
2013-01-09 01:54:00,38.1,24.2,30.11,North,-999,-999.0,-999.0,57,-99.99,,,-99.99,,2013-01-09 08:54:00,
2013-01-09 02:00:00,36.3,24.0,30.12,North,-999,-999.0,-999.0,60,-99.99,,,-99.99,,2013-01-09 09:00:00,
2013-01-09 02:06:00,36.8,24.2,30.11,North,-999,-999.0,-999.0,59,-99.99,,,-99.99,,2013-01-09 09:06:00,
2013-01-09 02:12:00,37.7,24.3,30.12,North,-999,-999.0,-999.0,58,-99.99,,,-99.99,,2013-01-09 09:12:00,
2013-01-09 02:18:00,38.0,24.3,30.12,North,-999,-999.0,-999.0,57,-99.99,,,-99.99,,2013-01-09 09:18:00,
2013-01-09 02:24:00,36.3,24.1,30.13,North,-999,-999.0,-999.0,60,-99.99,,,-99.99,,2013-01-09 09:24:00,
2013-01-09 02:30:00,36.0,24.2,30.13,North,-999,-999.0,-999.0,62,-99.99,,,-99.99,,2013-01-09 09:30:00,
2013-01-09 02:36:00,35.9,24.2,30.14,North,-999,-999.0,-999.0,62,-99.99,,,-99.99,,2013-01-09 09:36:00,
2013-01-09 02:42:00,34.9,24.1,30.13,North,-999,-999.0,-999.0,64,-99.99,,,-99.99,,2013-01-09 09:42:00,
2013-01-09 02:48:00,36.3,24.4,30.14,North,-999,-999.0,-999.0,61,-99.99,,,-99.99,,2013-01-09 09:48:00,
2013-01-09 02:54:00,36.7,24.4,30.13,North,-999,-999.0,-999.0,60,-99.99,,,-99.99,,2013-01-09 09:54:00,
2013-01-09 03:00:00,35.7,24.3,30.13,North,-999,-999.0,-999.0,63,-99.99,,,-99.99,,2013-01-09 10:00:00,
2013-01-09 03:06:00,37.1,24.3,30.13,North,-999,-999.0,-999.0,59,-99.99,,,-99.99,,2013-01-09 10:06:00,
2013-01-09 03:12:00,36.0,24.2,30.13,North,-999,-999.0,-999.0,61,-99.99,,,-99.99,,2013-01-09 10:12:00,
2013-01-09 03:18:00,37.4,23.9,30.13,North,-999,-999.0,-999.0,57,-99.99,,,-99.99,,2013-01-09 10:18:00,
2013-01-09 03:24:00,39.1,23.4,30.14,North,-999,-999.0,-999.0,52,-99.99,,,-99.99,,2013-01-09 10:24:00,
2013-01-09 03:30:00,38.4,23.3,30.13,North,-999,-999.0,-999.0,54,-99.99,,,-99.99,,2013-01-09 10:30:00,
2013-01-09 03:36:00,37.9,23.1,30.13,North,-999,-999.0,-999.0,54,-99.99,,,-99.99,,2013-01-09 10:36:00,
2013-01-09 03:42:00,37.4,23.0,30.13,North,-999,-999.0,-999.0,55,-99.99,,,-99.99,,2013-01-09 10:42:00,
2013-01-09 03:48:00,37.0,22.9,30.13,North,-999,-999.0,-999.0,56,-99.99,,,-99.99,,2013-01-09 10:48:00,
2013-01-09 03:54:00,36.5,22.9,30.13,North,-999,-999.0,-999.0,57,-99.99,,,-99.99,,2013-01-09 10:54:00,
2013-01-09 04:00:00,36.2,23.0,30.14,North,-999,-999.0,-999.0,58,-99.99,,,-99.99,,2013-01-09 11:00:00,
2013-01-09 04:06:00,37.0,22.9,30.14,North,-999,-999.0,-999.0,56,-99.99,,,-99.99,,2013-01-09 11:06:00,
2013-01-09 04:12:00,37.0,22.7,30.13,North,-999,-999.0,-999.0,55,-99.99,,,-99.99,,2013-01-09 11:12:00,
2013-01-09 04:18:00,37.1,22.7,30.13,North,-999,-999.0,-999.0,55,-99.99,,,-99.99,,2013-01-09 11:18:00,
2013-01-09 04:24:00,35.7,22.6,30.13,North,-999,-999.0,-999.0,58,-99.99,,,-99.99,,2013-01-09 11:24:00,
2013-01-09 04:30:00,34.7,22.5,30.13,North,-999,-999.0,-999.0,60,-99.99,,,-99.99,,2013-01-09 11:30:00,
2013-01-09 04:36:00,34.1,22.4,30.13,North,-999,-999.0,-999.0,62,-99.99,,,-99.99,,2013-01-09 11:36:00,
2013-01-09 04:42:00,35.7,22.5,30.13,North,-999,-999.0,-999.0,58,-99.99,,,-99.99,,2013-01-09 11:42:00,
2013-01-09 04:48:00,37.0,22.4,30.13,North,-999,-999.0,-999.0,55,-99.99,,,-99.99,,2013-01-09 11:48:00,
2013-01-09 04:54:00,39.3,22.3,30.12,North,-999,-999.0,-999.0,50,-99.99,,,-99.99,,2013-01-09 11:54:00,
2013-01-09 05:00:00,40.6,22.3,30.12,North,-999,-999.0,-999.0,47,-99.99,,,-99.99,,2013-01-09 12:00:00,
2013-01-09 05:06:00,40.6,22.3,30.14,North,-999,-999.0,-999.0,47,-99.99,,,-99.99,,2013-01-09 12:06:00,
2013-01-09 05:12:00,40.9,22.3,30.14,North,-999,-999.0,-999.0,47,-99.99,,,-99.99,,2013-01-09 12:12:00,
2013-01-09 05:18:00,41.3,22.4,30.14,North,-999,-999.0,-999.0,46,-99.99,,,-99.99,,2013-01-09 12:18:00,
2013-01-09 05:24:00,39.7,22.4,30.13,North,-999,-999.0,-999.0,49,-99.99,,,-99.99,,2013-01-09 12:24:00,
2013-01-09 05:30:00,39.8,22.3,30.14,North,-999,-999.0,-999.0,49,-99.99,,,-99.99,,2013-01-09 12:30:00,
2013-01-09 05:36:00,40.1,22.3,30.13,North,-999,-999.0,-999.0,48,-99.99,,,-99.99,,2013-01-09 12:36:00,
2013-01-09 05:42:00,40.0,22.2,30.14,North,-999,-999.0,-999.0,48,-99.99,,,-99.99,,2013-01-09 12:42:00,
2013-01-09 05:48:00,39.3,22.3,30.13,North,-999,-999.0,-999.0,50,-99.99,,,-99.99,,2013-01-09 12:48:00,
2013-01-09 05:54:00,38.3,22.2,30.14,North,-999,-999.0,-999.0,52,-99.99,,,-99.99,,2013-01-09 12:54:00,
2013-01-09 06:00:00,36.5,22.0,30.14,North,-999,-999.0,-999.0,55,-99.99,,,-99.99,,2013-01-09 13:00:00,
2013-01-09 06:06:00,35.6,21.9,30.15,North,-999,-999.0,-999.0,57,-99.99,,,-99.99,,2013-01-09 13:06:00,
2013-01-09 06:12:00,35.4,21.9,30.15,North,-999,-999.0,-999.0,57,-99.99,,,-99.99,,2013-01-09 13:12:00,
2013-01-09 06:18:00,35.6,22.0,30.15,North,-999,-999.0,-999.0,57,-99.99,,,-99.99,,2013-01-09 13:18:00,
2013-01-09 06:24:00,36.0,22.0,30.15,North,-999,-999.0,-999.0,56,-99.99,,,-99.99,,2013-01-09 13:24:00,
2013-01-09 06:30:00,35.6,22.0,30.13,North,-999,-999.0,-999.0,57,-99.99,,,-99.99,,2013-01-09 13:30:00,
2013-01-09 06:36:00,34.2,21.8,30.14,North,-999,-999.0,-999.0,60,-99.99,,,-99.99,,2013-01-09 13:36:00,
2013-01-09 06:42:00,34.2,21.9,30.15,North,-999,-999.0,-999.0,60,-99.99,,,-99.99,,2013-01-09 13:42:00,
2013-01-09 06:48:00,35.0,22.1,30.15,North,-999,-999.0,-999.0,59,-99.99,,,-99.99,,2013-01-09 13:48:00,
2013-01-09 06:54:00,36.3,22.3,30.15,North,-999,-999.0,-999.0,56,-99.99,,,-99.99,,2013-01-09 13:54:00,
2013-01-09 07:00:00,37.3,22.2,30.16,North,-999,-999.0,-999.0,54,-99.99,,,-99.99,,2013-01-09 14:00:00,
2013-01-09 07:06:00,37.8,22.2,30.17,North,-999,-999.0,-999.0,52,-99.99,,,-99.99,,2013-01-09 14:06:00,
2013-01-09 07:12:00,38.2,22.2,30.16,North,-999,-999.0,-999.0,52,-99.99,,,-99.99,,2013-01-09 14:12:00,
2013-01-09 13:14:00,44.3,21.5,30.15,North,-999,-999.0,-999.0,44,-99.99,,,-99.99,,2013-01-09 20:14:00,
2013-01-09 13:20:00,69.6,19.6,30.10,North,-999,-999.0,-999.0,14,-99.99,,,-99.99,,2013-01-09 20:20:00,
2013-01-09 13:26:00,69.9,19.6,30.08,North,-999,-999.0,-999.0,14,-99.99,,,-99.99,,2013-01-09 20:26:00,
2013-01-09 13:32:00,69.7,19.9,30.09,North,-999,-999.0,-999.0,14,-99.99,,,-99.99,,2013-01-09 20:32:00,
2013-01-09 13:38:00,69.5,19.0,30.07,North,-999,-999.0,-999.0,14,-99.99,,,-99.99,,2013-01-09 20:38:00,
2013-01-09 13:44:00,70.1,19.0,30.08,North,-999,-999.0,-999.0,14,-99.99,,,-99.99,,2013-01-09 20:44:00,
2013-01-09 13:50:00,69.8,18.6,30.08,North,-999,-999.0,-999.0,14,-99.99,,,-99.99,,2013-01-09 20:50:00,
2013-01-09 13:56:00,69.6,18.7,30.08,North,-999,-999.0,-999.0,14,-99.99,,,-99.99,,2013-01-09 20:56:00,
2013-01-09 14:02:00,69.6,18.8,30.08,North,-999,-999.0,-999.0,14,-99.99,,,-99.99,,2013-01-09 21:02:00,
2013-01-09 14:08:00,69.8,17.7,30.08,North,-999,-999.0,-999.0,13,-99.99,,,-99.99,,2013-01-09 21:08:00,
2013-01-09 14:14:00,69.7,18.0,30.08,North,-999,-999.0,-999.0,13,-99.99,,,-99.99,,2013-01-09 21:14:00,
2013-01-09 14:20:00,69.7,18.7,30.09,North,-999,-999.0,-999.0,14,-99.99,,,-99.99,,2013-01-09 21:20:00,
2013-01-09 14:26:00,69.8,18.9,30.09,North,-999,-999.0,-999.0,14,-99.99,,,-99.99,,2013-01-09 21:26:00,
2013-01-09 14:32:00,70.4,19.7,30.09,North,-999,-999.0,-999.0,14,-99.99,,,-99.99,,2013-01-09 21:32:00,
2013-01-09 14:38:00,70.3,19.6,30.09,North,-999,-999.0,-999.0,14,-99.99,,,-99.99,,2013-01-09 21:38:00,
2013-01-09 14:44:00,70.7,19.7,30.08,North,-999,-999.0,-999.0,14,-99.99,,,-99.99,,2013-01-09 21:44:00,
2013-01-09 14:50:00,70.8,19.6,30.08,North,-999,-999.0,-999.0,14,-99.99,,,-99.99,,2013-01-09 21:50:00,
2013-01-09 14:56:00,70.5,19.6,30.08,North,-999,-999.0,-999.0,14,-99.99,,,-99.99,,2013-01-09 21:56:00,
2013-01-09 15:02:00,70.7,19.8,30.08,North,-999,-999.0,-999.0,14,-99.99,,,-99.99,,2013-01-09 22:02:00,
2013-01-09 15:08:00,70.5,18.6,30.07,North,-999,-999.0,-999.0,13,-99.99,,,-99.99,,2013-01-09 22:08:00,
2013-01-09 15:14:00,70.5,18.8,30.07,North,-999,-999.0,-999.0,13,-99.99,,,-99.99,,2013-01-09 22:14:00,
2013-01-09 15:20:00,70.3,18.5,30.06,North,-999,-999.0,-999.0,13,-99.99,,,-99.99,,2013-01-09 22:20:00,
2013-01-09 15:26:00,70.3,19.8,30.09,North,-999,-999.0,-999.0,14,-99.99,,,-99.99,,2013-01-09 22:26:00,
2013-01-09 15:32:00,70.1,19.9,30.07,North,-999,-999.0,-999.0,14,-99.99,,,-99.99,,2013-01-09 22:32:00,
2013-01-09 15:38:00,70.0,20.1,30.08,North,-999,-999.0,-999.0,14,-99.99,,,-99.99,,2013-01-09 22:38:00,
2013-01-09 15:44:00,69.8,20.0,30.09,North,-999,-999.0,-999.0,14,-99.99,,,-99.99,,2013-01-09 22:44:00,
2013-01-09 15:50:00,69.6,20.0,30.08,North,-999,-999.0,-999.0,15,-99.99,,,-99.99,,2013-01-09 22:50:00,
2013-01-09 15:56:00,69.0,20.0,30.07,North,-999,-999.0,-999.0,15,-99.99,,,-99.99,,2013-01-09 22:56:00,
2013-01-09 16:02:00,68.7,19.8,30.07,North,-999,-999.0,-999.0,15,-99.99,,,-99.99,,2013-01-09 23:02:00,
2013-01-09 16:08:00,68.8,19.6,30.07,North,-999,-999.0,-999.0,15,-99.99,,,-99.99,,2013-01-09 23:08:00,
2013-01-09 16:14:00,68.8,19.4,30.07,North,-999,-999.0,-999.0,15,-99.99,,,-99.99,,2013-01-09 23:14:00,
2013-01-09 16:20:00,69.0,19.5,30.07,North,-999,-999.0,-999.0,15,-99.99,,,-99.99,,2013-01-09 23:20:00,
2013-01-09 16:26:00,69.1,19.5,30.08,North,-999,-999.0,-999.0,14,-99.99,,,-99.99,,2013-01-09 23:26:00,
2013-01-09 16:32:00,69.1,19.1,30.07,North,-999,-999.0,-999.0,14,-99.99,,,-99.99,,2013-01-09 23:32:00,
2013-01-09 16:38:00,68.7,18.4,30.09,North,-999,-999.0,-999.0,14,-99.99,,,-99.99,,2013-01-09 23:38:00,
2013-01-09 16:44:00,68.4,18.5,30.09,North,-999,-999.0,-999.0,14,-99.99,,,-99.99,,2013-01-09 23:44:00,
2013-01-09 16:50:00,68.1,18.2,30.08,North,-999,-999.0,-999.0,14,-99.99,,,-99.99,,2013-01-09 23:50:00,
2013-01-09 16:56:00,67.6,18.4,30.08,North,-999,-999.0,-999.0,15,-99.99,,,-99.99,,2013-01-09 23:56:00,
2013-01-09 17:02:00,67.0,18.2,30.07,North,-999,-999.0,-999.0,15,-99.99,,,-99.99,,2013-01-10 00:02:00,
2013-01-09 17:08:00,66.5,18.4,30.07,North,-999,-999.0,-999.0,15,-99.99,,,-99.99,,2013-01-10 00:08:00,
2013-01-09 17:14:00,65.9,18.5,30.06,North,-999,-999.0,-999.0,16,-99.99,,,-99.99,,2013-01-10 00:14:00,
2013-01-09 17:20:00,65.1,18.7,30.06,North,-999,-999.0,-999.0,16,-99.99,,,-99.99,,2013-01-10 00:20:00,
2013-01-09 17:26:00,64.8,18.6,30.05,North,-999,-999.0,-999.0,16,-99.99,,,-99.99,,2013-01-10 00:26:00,
2013-01-09 17:32:00,64.4,18.6,30.06,North,-999,-999.0,-999.0,17,-99.99,,,-99.99,,2013-01-10 00:32:00,
2013-01-09 17:38:00,63.8,18.6,30.05,North,-999,-999.0,-999.0,17,-99.99,,,-99.99,,2013-01-10 00:38:00,
2013-01-09 17:44:00,63.6,18.5,30.06,North,-999,-999.0,-999.0,17,-99.99,,,-99.99,,2013-01-10 00:44:00,
2013-01-09 17:50:00,63.4,18.4,30.05,North,-999,-999.0,-999.0,17,-99.99,,,-99.99,,2013-01-10 00:50:00,
2013-01-09 17:56:00,63.2,18.5,30.06,North,-999,-999.0,-999.0,17,-99.99,,,-99.99,,2013-01-10 00:56:00,
2013-01-09 18:02:00,62.8,18.6,30.06,North,-999,-999.0,-999.0,17,-99.99,,,-99.99,,2013-01-10 01:02:00,
2013-01-09 18:08:00,62.2,18.6,30.07,North,-999,-999.0,-999.0,18,-99.99,,,-99.99,,2013-01-10 01:08:00,
2013-01-09 18:14:00,61.8,18.7,30.08,North,-999,-999.0,-999.0,18,-99.99,,,-99.99,,2013-01-10 01:14:00,
2013-01-09 18:20:00,61.3,18.8,30.07,North,-999,-999.0,-999.0,19,-99.99,,,-99.99,,2013-01-10 01:20:00,
2013-01-09 18:26:00,61.0,18.8,30.07,North,-999,-999.0,-999.0,19,-99.99,,,-99.99,,2013-01-10 01:26:00,
2013-01-09 18:32:00,60.5,18.9,30.06,North,-999,-999.0,-999.0,19,-99.99,,,-99.99,,2013-01-10 01:32:00,
2013-01-09 18:38:00,60.1,18.8,30.07,North,-999,-999.0,-999.0,20,-99.99,,,-99.99,,2013-01-10 01:38:00,
2013-01-09 18:44:00,59.5,18.9,30.07,North,-999,-999.0,-999.0,20,-99.99,,,-99.99,,2013-01-10 01:44:00,
2013-01-09 18:50:00,58.5,18.9,30.06,North,-999,-999.0,-999.0,21,-99.99,,,-99.99,,2013-01-10 01:50:00,
2013-01-09 18:56:00,58.8,18.7,30.07,North,-999,-999.0,-999.0,20,-99.99,,,-99.99,,2013-01-10 01:56:00,
2013-01-09 19:02:00,59.1,18.6,30.07,North,-999,-999.0,-999.0,20,-99.99,,,-99.99,,2013-01-10 02:02:00,
2013-01-09 19:08:00,58.9,18.8,30.06,North,-999,-999.0,-999.0,20,-99.99,,,-99.99,,2013-01-10 02:08:00,
2013-01-09 19:14:00,58.5,18.7,30.06,North,-999,-999.0,-999.0,21,-99.99,,,-99.99,,2013-01-10 02:14:00,
2013-01-09 19:20:00,58.9,18.6,30.07,North,-999,-999.0,-999.0,20,-99.99,,,-99.99,,2013-01-10 02:20:00,
2013-01-09 19:26:00,59.3,18.7,30.05,North,-999,-999.0,-999.0,20,-99.99,,,-99.99,,2013-01-10 02:26:00,
2013-01-09 19:32:00,59.1,18.7,30.05,North,-999,-999.0,-999.0,20,-99.99,,,-99.99,,2013-01-10 02:32:00,
2013-01-09 19:38:00,58.4,18.7,30.06,North,-999,-999.0,-999.0,21,-99.99,,,-99.99,,2013-01-10 02:38:00,
2013-01-09 19:44:00,57.0,18.9,30.06,North,-999,-999.0,-999.0,22,-99.99,,,-99.99,,2013-01-10 02:44:00,
2013-01-09 19:50:00,54.3,18.8,30.05,North,-999,-999.0,-999.0,24,-99.99,,,-99.99,,2013-01-10 02:50:00,
2013-01-09 19:56:00,52.8,19.4,30.06,North,-999,-999.0,-999.0,26,-99.99,,,-99.99,,2013-01-10 02:56:00,
2013-01-09 20:02:00,52.0,19.3,30.06,North,-999,-999.0,-999.0,27,-99.99,,,-99.99,,2013-01-10 03:02:00,
2013-01-09 20:08:00,52.6,19.1,30.07,North,-999,-999.0,-999.0,26,-99.99,,,-99.99,,2013-01-10 03:08:00,
2013-01-09 20:14:00,52.8,19.6,30.06,North,-999,-999.0,-999.0,26,-99.99,,,-99.99,,2013-01-10 03:14:00,
2013-01-09 20:20:00,52.5,19.6,30.05,North,-999,-999.0,-999.0,27,-99.99,,,-99.99,,2013-01-10 03:20:00,
2013-01-09 20:26:00,51.9,19.9,30.05,North,-999,-999.0,-999.0,28,-99.99,,,-99.99,,2013-01-10 03:26:00,
2013-01-09 20:32:00,50.4,20.0,30.07,North,-999,-999.0,-999.0,29,-99.99,,,-99.99,,2013-01-10 03:32:00,
2013-01-09 20:38:00,49.0,20.0,30.06,North,-999,-999.0,-999.0,31,-99.99,,,-99.99,,2013-01-10 03:38:00,
2013-01-09 20:44:00,48.2,19.7,30.06,North,-999,-999.0,-999.0,32,-99.99,,,-99.99,,2013-01-10 03:44:00,
2013-01-09 20:50:00,47.6,20.1,30.06,North,-999,-999.0,-999.0,33,-99.99,,,-99.99,,2013-01-10 03:50:00,
2013-01-09 20:56:00,47.2,20.4,30.07,North,-999,-999.0,-999.0,34,-99.99,,,-99.99,,2013-01-10 03:56:00,
2013-01-09 21:02:00,46.9,20.2,30.06,North,-999,-999.0,-999.0,34,-99.99,,,-99.99,,2013-01-10 04:02:00,
2013-01-09 21:08:00,45.5,19.8,30.06,North,-999,-999.0,-999.0,35,-99.99,,,-99.99,,2013-01-10 04:08:00,
2013-01-09 21:14:00,45.2,20.4,30.06,North,-999,-999.0,-999.0,36,-99.99,,,-99.99,,2013-01-10 04:14:00,
2013-01-09 21:20:00,44.9,19.8,30.06,North,-999,-999.0,-999.0,36,-99.99,,,-99.99,,2013-01-10 04:20:00,
2013-01-09 21:26:00,44.8,20.4,30.06,North,-999,-999.0,-999.0,37,-99.99,,,-99.99,,2013-01-10 04:26:00,
2013-01-09 21:32:00,44.4,20.3,30.07,North,-999,-999.0,-999.0,37,-99.99,,,-99.99,,2013-01-10 04:32:00,
2013-01-09 21:38:00,44.1,20.8,30.06,North,-999,-999.0,-999.0,39,-99.99,,,-99.99,,2013-01-10 04:38:00,
2013-01-09 21:44:00,44.7,21.1,30.07,North,-999,-999.0,-999.0,38,-99.99,,,-99.99,,2013-01-10 04:44:00,
2013-01-09 21:50:00,45.7,21.5,30.07,North,-999,-999.0,-999.0,37,-99.99,,,-99.99,,2013-01-10 04:50:00,
2013-01-09 21:56:00,45.1,21.7,30.05,North,-999,-999.0,-999.0,39,-99.99,,,-99.99,,2013-01-10 04:56:00,
2013-01-09 22:02:00,43.9,21.7,30.07,North,-999,-999.0,-999.0,41,-99.99,,,-99.99,,2013-01-10 05:02:00,
2013-01-09 22:08:00,43.1,21.8,30.07,North,-999,-999.0,-999.0,42,-99.99,,,-99.99,,2013-01-10 05:08:00,
2013-01-09 22:14:00,42.1,21.7,30.06,North,-999,-999.0,-999.0,43,-99.99,,,-99.99,,2013-01-10 05:14:00,
2013-01-09 22:20:00,42.1,22.0,30.07,North,-999,-999.0,-999.0,44,-99.99,,,-99.99,,2013-01-10 05:20:00,
2013-01-09 22:26:00,41.6,22.1,30.07,North,-999,-999.0,-999.0,45,-99.99,,,-99.99,,2013-01-10 05:26:00,
2013-01-09 22:32:00,42.2,22.5,30.06,North,-999,-999.0,-999.0,45,-99.99,,,-99.99,,2013-01-10 05:32:00,
2013-01-09 22:38:00,43.7,23.0,30.06,North,-999,-999.0,-999.0,43,-99.99,,,-99.99,,2013-01-10 05:38:00,
2013-01-09 22:44:00,44.8,23.2,30.07,North,-999,-999.0,-999.0,42,-99.99,,,-99.99,,2013-01-10 05:44:00,
2013-01-09 22:50:00,44.2,23.2,30.07,North,-999,-999.0,-999.0,43,-99.99,,,-99.99,,2013-01-10 05:50:00,
2013-01-09 22:56:00,42.4,22.8,30.06,North,-999,-999.0,-999.0,45,-99.99,,,-99.99,,2013-01-10 05:56:00,
2013-01-09 23:02:00,42.7,22.4,30.07,North,-999,-999.0,-999.0,44,-99.99,,,-99.99,,2013-01-10 06:02:00,
2013-01-09 23:08:00,42.7,22.4,30.06,North,-999,-999.0,-999.0,44,-99.99,,,-99.99,,2013-01-10 06:08:00,
2013-01-09 23:14:00,43.1,22.1,30.05,North,-999,-999.0,-999.0,43,-99.99,,,-99.99,,2013-01-10 06:14:00,
2013-01-09 23:20:00,43.7,21.8,30.06,North,-999,-999.0,-999.0,41,-99.99,,,-99.99,,2013-01-10 06:20:00,
2013-01-09 23:26:00,43.0,21.9,30.06,North,-999,-999.0,-999.0,42,-99.99,,,-99.99,,2013-01-10 06:26:00,
2013-01-09 23:32:00,41.7,21.9,30.07,North,-999,-999.0,-999.0,45,-99.99,,,-99.99,,2013-01-10 06:32:00,
2013-01-09 23:38:00,43.3,21.6,30.05,North,-999,-999.0,-999.0,41,-99.99,,,-99.99,,2013-01-10 06:38:00,
2013-01-09 23:44:00,44.4,21.7,30.06,North,-999,-999.0,-999.0,40,-99.99,,,-99.99,,2013-01-10 06:44:00,
2013-01-09 23:56:00,45.4,21.2,30.06,North,-999,-999.0,-999.0,37,-99.99,,,-99.99,,2013-01-10 06:56:00,